Time;durP1;ratioP1;P1;durP2;ratioP2;P2;SDS_P1;SDS_P2;PMS_P1;PMS_P2;Temp;Humidity;BMP_temperature;BMP_pressure;BME280_temperature;BME280_humidity;BME280_pressure;Samples;Min_cycle;Max_cycle;Signal;HPM_P1;HPM_P2
2022/04/16 00:01:23;;;;;;;22.92;16.50;;;;;;;7.66;82.07;102986.44;5112121;28;20034;-74
2022/04/16 00:03:48;;;;;;;21.13;15.50;;;;;;;7.62;82.17;102988.91;5098296;28;20032;-74
2022/04/16 00:06:13;;;;;;;21.42;15.82;;;;;;;7.54;82.40;102987.88;5113779;28;20031;-74
2022/04/16 00:08:39;;;;;;;23.67;16.58;;;;;;;7.50;82.66;102979.13;5114880;28;20494;-74
2022/04/16 00:11:06;;;;;;;24.30;16.65;;;;;;;7.51;82.66;102984.34;5113991;28;20490;-74
2022/04/16 00:13:32;;;;;;;21.55;16.85;;;;;;;7.50;83.19;102989.53;5106690;28;20019;-74
2022/04/16 00:15:58;;;;;;;23.88;16.77;;;;;;;7.46;82.89;102982.50;5114872;27;20027;-74
2022/04/16 00:18:24;;;;;;;23.08;16.70;;;;;;;7.44;83.13;102979.00;5114208;28;20050;-74
2022/04/16 00:20:51;;;;;;;22.05;16.15;;;;;;;7.45;83.50;102980.75;5114899;28;20027;-74
2022/04/16 00:23:21;;;;;;;22.02;15.98;;;;;;;7.38;83.63;102981.44;5111212;28;20073;-74
2022/04/16 00:25:48;;;;;;;20.75;15.65;;;;;;;7.37;83.59;102982.28;5102847;28;20032;-74
2022/04/16 00:28:13;;;;;;;23.30;17.20;;;;;;;7.34;83.09;102983.09;5112732;28;20102;-74
2022/04/16 00:30:39;;;;;;;22.27;16.10;;;;;;;7.32;83.87;102979.56;5114505;28;20157;-74
2022/04/16 00:33:10;;;;;;;24.42;17.42;;;;;;;7.32;83.84;102982.16;5112782;28;20023;-74
2022/04/16 00:35:37;;;;;;;24.63;16.80;;;;;;;7.30;83.80;102986.44;5114971;28;20030;-74
2022/04/16 00:38:02;;;;;;;26.75;17.75;;;;;;;7.32;83.71;102983.88;5114245;28;20023;-74
2022/04/16 00:40:28;;;;;;;21.83;16.50;;;;;;;7.25;83.70;102986.31;5112490;28;20379;-74
2022/04/16 00:42:53;;;;;;;22.25;16.02;;;;;;;7.25;83.90;102986.31;5111684;28;20039;-74
2022/04/16 00:45:18;;;;;;;21.08;16.23;;;;;;;7.25;83.88;102988.91;5112757;28;20496;-74
2022/04/16 00:47:45;;;;;;;21.40;16.65;;;;;;;7.27;84.00;102984.66;5103305;28;20065;-74
2022/04/16 00:50:12;;;;;;;22.38;16.73;;;;;;;7.21;84.60;102987.09;5114082;28;20099;-74
2022/04/16 00:52:38;;;;;;;22.63;17.75;;;;;;;7.17;84.32;102995.66;5103296;28;20087;-74
2022/04/16 00:55:06;;;;;;;21.33;16.35;;;;;;;7.11;84.14;102985.13;5093840;28;20028;-74
2022/04/16 00:57:31;;;;;;;24.67;17.75;;;;;;;7.11;84.74;102990.31;5093327;28;20354;-74
2022/04/16 00:59:57;;;;;;;24.05;16.95;;;;;;;7.11;85.08;102992.03;5094203;28;20467;-74
2022/04/16 01:02:22;;;;;;;22.52;16.85;;;;;;;7.10;84.63;102991.16;5094080;28;20024;-74
2022/04/16 01:04:48;;;;;;;24.65;16.50;;;;;;;7.08;85.01;102992.81;5105561;28;20032;-74
2022/04/16 01:07:13;;;;;;;26.40;18.10;;;;;;;7.06;85.17;102989.28;5114323;27;20467;-74
2022/04/16 01:09:38;;;;;;;26.17;18.63;;;;;;;7.06;84.95;102997.06;5113957;28;20034;-74
2022/04/16 01:12:05;;;;;;;25.98;17.98;;;;;;;7.02;85.32;102987.47;5098270;28;20093;-74
2022/04/16 01:14:32;;;;;;;25.08;17.88;;;;;;;6.97;86.01;102989.97;5110048;28;20039;-74
2022/04/16 01:16:58;;;;;;;25.73;18.02;;;;;;;6.90;86.03;102992.34;5113344;28;20020;-74
2022/04/16 01:19:24;;;;;;;24.00;18.08;;;;;;;6.86;86.24;102993.09;5101484;28;20080;-74
2022/04/16 01:21:50;;;;;;;23.45;16.95;;;;;;;6.84;86.60;102998.25;5103975;28;20351;-74
2022/04/16 01:24:15;;;;;;;26.60;18.05;;;;;;;6.81;87.13;102993.00;5113677;28;20387;-74
2022/04/16 01:26:44;;;;;;;25.30;18.92;;;;;;;6.79;86.88;102995.53;5112393;28;20038;-74
2022/04/16 01:29:10;;;;;;;26.77;18.38;;;;;;;6.80;87.02;103007.69;5110618;28;20028;-74
2022/04/16 01:31:35;;;;;;;27.02;18.58;;;;;;;6.79;87.28;103003.31;5113140;28;20039;-74
2022/04/16 01:34:01;;;;;;;26.38;18.63;;;;;;;6.78;86.95;103011.94;5112883;28;20031;-74
2022/04/16 01:36:30;;;;;;;26.10;18.58;;;;;;;6.74;87.39;103010.09;5113736;28;20015;-74
2022/04/16 01:38:56;;;;;;;24.92;19.33;;;;;;;6.74;87.51;103009.22;5112114;28;20031;-74
2022/04/16 01:41:23;;;;;;;29.40;19.73;;;;;;;6.74;87.55;103011.81;5113218;28;20424;-74
2022/04/16 01:43:48;;;;;;;30.35;20.38;;;;;;;6.73;87.09;103010.91;5111732;28;20032;-73
2022/04/16 01:46:14;;;;;;;27.80;19.40;;;;;;;6.75;87.38;103019.63;5112897;28;20030;-74
2022/04/16 01:48:39;;;;;;;27.23;18.83;;;;;;;6.71;87.81;103019.50;5112796;28;20032;-74
2022/04/16 01:51:05;;;;;;;24.80;19.10;;;;;;;6.67;87.88;103013.38;5112904;28;20167;-74
2022/04/16 01:53:30;;;;;;;26.17;19.60;;;;;;;6.65;87.77;103012.44;5097454;28;20070;-74
2022/04/16 01:55:55;;;;;;;28.08;19.77;;;;;;;6.60;88.39;103007.94;5093093;28;20443;-74
2022/04/16 01:58:21;;;;;;;26.30;19.70;;;;;;;6.62;88.35;103008.88;5093105;28;20081;-74
2022/04/16 02:00:48;;;;;;;29.33;19.25;;;;;;;6.57;88.43;103016.50;5095924;28;20024;-74
2022/04/16 02:03:14;;;;;;;29.88;19.15;;;;;;;6.55;88.86;103007.84;5110663;28;20532;-74
2022/04/16 02:05:40;;;;;;;30.15;19.88;;;;;;;6.50;88.77;103002.50;5111337;28;20035;-74
2022/04/16 02:08:07;;;;;;;28.35;19.67;;;;;;;6.54;89.22;103016.47;5110682;28;20134;-73
2022/04/16 02:10:34;;;;;;;25.63;19.25;;;;;;;6.52;89.11;103008.63;5112828;28;20035;-74
2022/04/16 02:13:00;;;;;;;28.45;19.98;;;;;;;6.48;89.64;103009.38;5110972;28;20035;-74
2022/04/16 02:15:25;;;;;;;26.77;21.00;;;;;;;6.51;89.77;103019.84;5112690;28;20060;-73
2022/04/16 02:17:51;;;;;;;27.42;19.58;;;;;;;6.51;89.96;103006.00;5112418;28;20479;-73
2022/04/16 02:20:16;;;;;;;29.70;19.70;;;;;;;6.45;90.04;103016.19;5112266;28;20106;-74
2022/04/16 02:22:44;;;;;;;29.83;20.48;;;;;;;6.51;89.94;103017.25;5105037;28;20552;-74
2022/04/16 02:25:13;;;;;;;26.85;20.25;;;;;;;6.48;89.79;103016.28;5101786;28;20028;-74
2022/04/16 02:27:39;;;;;;;28.20;19.67;;;;;;;6.45;90.08;103017.06;5111627;28;20036;-73
2022/04/16 02:30:06;;;;;;;30.38;20.38;;;;;;;6.38;90.35;103019.44;5112098;28;20077;-73
2022/04/16 02:32:31;;;;;;;25.65;19.73;;;;;;;6.28;90.40;103013.13;5105625;28;20024;-74
2022/04/16 02:34:57;;;;;;;25.90;19.70;;;;;;;6.25;90.35;103019.09;5092201;28;20042;-74
2022/04/16 02:37:22;;;;;;;28.83;20.45;;;;;;;6.30;90.80;103021.81;5091838;28;20476;-74
2022/04/16 02:39:47;;;;;;;31.60;20.20;;;;;;;6.29;90.71;103015.75;5091791;28;20044;-74
2022/04/16 02:42:13;;;;;;;31.20;20.60;;;;;;;6.26;90.99;103027.72;5092074;28;20467;-74
2022/04/16 02:47:22;;;;;;;;;;;;;;;6.26;87.79;103032.91;5109732;28;20112;-74
2022/04/16 02:49:47;;;;;;;28.90;21.13;;;;;;;6.19;90.65;103039.63;5111341;28;20343;-73
2022/04/16 02:52:13;;;;;;;35.38;20.80;;;;;;;6.15;91.08;103024.84;5111041;28;20300;-73
2022/04/16 02:54:38;;;;;;;30.65;20.98;;;;;;;6.10;91.35;103035.03;5109742;28;20105;-73
2022/04/16 02:57:03;;;;;;;29.92;20.67;;;;;;;6.12;91.55;103034.22;5111712;28;20023;-74
2022/04/16 02:59:29;;;;;;;32.03;20.98;;;;;;;6.05;91.16;103030.59;5109117;28;20031;-74
2022/04/16 03:01:54;;;;;;;30.45;20.77;;;;;;;6.00;91.43;103033.00;5091573;28;20034;-74
2022/04/16 03:04:20;;;;;;;28.35;21.08;;;;;;;5.94;92.02;103039.72;5103176;28;20077;-74
2022/04/16 03:06:45;;;;;;;32.90;21.52;;;;;;;5.85;91.85;103020.47;5112092;28;20027;-73
2022/04/16 03:09:10;;;;;;;32.42;21.75;;;;;;;5.89;92.23;103041.25;5111537;28;20063;-74
2022/04/16 03:11:36;;;;;;;34.45;20.98;;;;;;;5.86;92.66;103045.50;5110078;28;20040;-73
2022/04/16 03:17:31;;;;;;;34.65;20.27;;;;;;;5.86;92.65;103039.47;5109862;28;20023;-74
2022/04/16 03:19:31;;;;;;;32.50;21.38;;;;;;;5.82;93.30;103043.66;5111813;28;20043;-73
2022/04/16 03:21:57;;;;;;;29.45;21.23;;;;;;;5.86;93.44;103042.03;5111719;28;20032;-73
2022/04/16 03:24:22;;;;;;;33.45;22.67;;;;;;;5.83;93.20;103040.22;5098748;28;20016;-74
2022/04/16 03:26:47;;;;;;;30.05;21.60;;;;;;;5.80;93.74;103045.31;5092826;28;20028;-74
2022/04/16 03:29:12;;;;;;;31.70;22.17;;;;;;;5.76;93.72;103043.47;5111765;28;20042;-74
2022/04/16 03:31:38;;;;;;;34.08;21.38;;;;;;;5.74;93.83;103049.41;5111661;28;20487;-74
2022/04/16 03:34:03;;;;;;;34.47;22.55;;;;;;;5.70;93.84;103058.78;5110511;28;20023;-73
2022/04/16 03:36:30;;;;;;;36.35;22.15;;;;;;;5.63;94.31;103047.38;5110866;28;20058;-74
2022/04/16 03:38:55;;;;;;;33.85;22.90;;;;;;;5.63;94.92;103052.53;5111549;28;20023;-74
2022/04/16 03:41:20;;;;;;;33.20;23.00;;;;;;;5.55;94.51;103041.06;5111792;28;20038;-74
2022/04/16 03:43:45;;;;;;;35.15;22.35;;;;;;;5.60;94.64;103049.84;5100066;28;20032;-74
2022/04/16 03:46:11;;;;;;;34.63;22.10;;;;;;;5.57;94.70;103046.28;5105590;28;20031;-74
2022/04/16 03:48:36;;;;;;;34.33;22.75;;;;;;;5.52;95.06;103050.44;5111785;28;20383;-74
2022/04/16 03:51:01;;;;;;;32.97;22.70;;;;;;;5.48;94.97;103049.44;5111541;28;20120;-74
2022/04/16 03:53:26;;;;;;;32.25;22.40;;;;;;;5.40;95.07;103050.91;5111267;28;20056;-74
2022/04/16 04:01:19;;;;;;;;;;;;;;;5.38;92.67;103052.56;5115990;28;20037;-74
2022/04/16 04:03:46;;;;;;;33.17;21.43;;;;;;;5.31;95.54;103051.47;5106303;28;19920;-74
2022/04/16 04:06:12;;;;;;;32.83;22.10;;;;;;;5.27;95.95;103054.81;5107248;28;20285;-74
2022/04/16 04:08:37;;;;;;;33.30;23.00;;;;;;;5.27;96.16;103051.34;5114019;28;20028;-74
2022/04/16 04:11:03;;;;;;;38.83;22.88;;;;;;;5.31;96.49;103061.81;5115007;28;20382;-74
2022/04/16 04:13:28;;;;;;;34.78;24.42;;;;;;;5.26;96.44;103063.38;5113557;28;20019;-74
2022/04/16 04:15:54;;;;;;;37.88;24.10;;;;;;;5.18;96.87;103051.91;5094150;28;20111;-74
2022/04/16 04:18:19;;;;;;;39.40;24.48;;;;;;;5.16;96.85;103064.75;5111513;28;20020;-73
2022/04/16 04:20:44;;;;;;;36.70;23.15;;;;;;;5.17;96.95;103057.91;5115183;28;20028;-73
2022/04/16 04:23:10;;;;;;;39.97;24.58;;;;;;;5.23;97.00;103064.97;5114674;28;20027;-73
2022/04/16 04:25:35;;;;;;;36.85;24.65;;;;;;;5.21;97.14;103069.22;5113395;28;20097;-73
2022/04/16 04:28:00;;;;;;;38.70;24.65;;;;;;;5.18;97.32;103074.28;5114987;28;20023;-74
2022/04/16 04:30:26;;;;;;;39.20;24.83;;;;;;;5.18;97.59;103079.47;5114589;28;20028;-74
2022/04/16 04:32:51;;;;;;;37.40;23.88;;;;;;;5.16;97.56;103074.22;5114381;28;20055;-73
2022/04/16 04:35:16;;;;;;;39.15;25.33;;;;;;;5.09;97.74;103067.97;5107754;28;20023;-74
2022/04/16 04:37:42;;;;;;;38.33;24.85;;;;;;;5.15;98.02;103081.09;5114380;28;20120;-74
2022/04/16 04:40:08;;;;;;;37.35;25.45;;;;;;;5.15;97.94;103083.69;5111444;28;20053;-74
2022/04/16 04:42:35;;;;;;;39.03;24.88;;;;;;;5.14;98.12;103076.78;5112628;28;20059;-74
2022/04/16 04:45:10;;;;;;;38.55;24.65;;;;;;;5.14;98.08;103084.53;5102833;28;20023;-74
2022/04/16 04:47:35;;;;;;;34.50;23.35;;;;;;;5.11;97.97;103091.31;5114722;28;20364;-74
2022/04/16 04:50:01;;;;;;;42.30;25.48;;;;;;;5.11;98.25;103088.72;5113057;28;20088;-73
2022/04/16 04:52:27;;;;;;;38.85;25.52;;;;;;;5.10;98.45;103089.53;5114504;28;20066;-73
2022/04/16 04:54:56;;;;;;;38.53;24.60;;;;;;;5.12;98.43;103093.06;5111466;28;20028;-74
2022/04/16 04:57:22;;;;;;;39.17;24.75;;;;;;;5.12;98.36;103095.63;5114336;28;20495;-74
2022/04/16 04:59:48;;;;;;;37.55;24.98;;;;;;;5.14;98.38;103097.47;5112802;28;20035;-74
2022/04/16 05:02:13;;;;;;;39.13;25.75;;;;;;;5.16;98.50;103100.09;5114749;28;20023;-74
2022/04/16 05:04:38;;;;;;;41.35;25.80;;;;;;;5.18;98.49;103110.50;5110958;28;20394;-74
2022/04/16 05:07:05;;;;;;;41.60;25.52;;;;;;;5.18;98.93;103108.78;5114036;28;20019;-74
2022/04/16 05:09:31;;;;;;;43.17;26.45;;;;;;;5.19;98.83;103109.66;5112981;28;20031;-74
2022/04/16 05:11:57;;;;;;;40.10;26.40;;;;;;;5.21;98.66;103113.19;5093640;28;20030;-74
2022/04/16 05:14:22;;;;;;;41.17;26.08;;;;;;;5.19;98.72;103107.94;5096598;28;20024;-74
2022/04/16 05:16:48;;;;;;;41.50;26.08;;;;;;;5.23;99.01;103109.84;5107370;28;20031;-73
2022/04/16 05:19:14;;;;;;;40.47;25.73;;;;;;;5.24;98.86;103110.72;5112067;28;20522;-74
2022/04/16 05:21:40;;;;;;;41.00;26.10;;;;;;;5.28;98.88;103113.44;5113685;28;20027;-74
2022/04/16 05:24:06;;;;;;;44.70;26.45;;;;;;;5.34;98.99;103120.56;5111762;28;20395;-74
2022/04/16 05:26:32;;;;;;;41.45;26.40;;;;;;;5.35;98.80;103111.94;5113438;28;20081;-74
2022/04/16 05:28:57;;;;;;;41.65;26.77;;;;;;;5.38;98.97;103125.00;5112323;28;20023;-74
2022/04/16 05:31:26;;;;;;;42.90;27.42;;;;;;;5.37;98.92;103121.53;5112846;28;20027;-74
2022/04/16 05:36:35;;;;;;;41.40;27.95;;;;;;;5.50;98.79;103127.13;5093306;28;20074;-74
2022/04/16 05:39:00;;;;;;;43.28;28.17;;;;;;;5.53;98.55;103127.25;5092673;28;20059;-74
2022/04/16 05:41:26;;;;;;;42.40;27.52;;;;;;;5.56;98.50;103124.75;5093365;28;20077;-74
2022/04/16 05:43:53;;;;;;;43.45;28.45;;;;;;;5.60;98.44;103118.84;5100309;28;20027;-74
2022/04/16 05:46:18;;;;;;;43.88;28.63;;;;;;;5.67;98.20;103119.94;5111043;28;20472;-73
2022/04/16 05:48:43;;;;;;;44.70;29.02;;;;;;;5.74;98.36;103125.34;5113198;28;20027;-74
2022/04/16 05:51:09;;;;;;;46.00;29.15;;;;;;;5.77;98.69;103127.16;5112994;28;20464;-74
2022/04/16 05:53:35;;;;;;;41.83;28.45;;;;;;;5.81;98.39;103127.31;5111524;28;20023;-75
2022/04/16 05:56:00;;;;;;;42.50;29.67;;;;;;;5.89;98.30;103129.28;5113169;28;20028;-74
2022/04/16 05:58:26;;;;;;;42.42;29.45;;;;;;;5.95;97.99;103139.84;5102904;28;20031;-74
2022/04/16 06:00:52;;;;;;;46.58;29.85;;;;;;;5.98;98.22;103135.63;5098541;28;20028;-74
2022/04/16 06:03:18;;;;;;;46.78;30.42;;;;;;;6.03;97.69;103143.56;5113182;28;20031;-74
2022/04/16 06:05:43;;;;;;;48.33;31.23;;;;;;;6.12;97.32;103150.78;5112994;28;20031;-74
2022/04/16 06:08:09;;;;;;;46.15;30.38;;;;;;;6.12;97.69;103150.78;5108010;28;20023;-74
2022/04/16 06:10:36;;;;;;;49.10;31.65;;;;;;;6.18;97.53;103158.72;5112852;28;20044;-74
2022/04/16 06:13:01;;;;;;;46.78;31.25;;;;;;;6.22;97.73;103164.06;5100837;28;20114;-74
2022/04/16 06:15:27;;;;;;;47.75;31.17;;;;;;;6.28;97.43;103166.84;5091229;28;20107;-74
2022/04/16 06:17:52;;;;;;;45.53;29.92;;;;;;;6.30;97.97;103152.19;5091836;28;20483;-74
2022/04/16 06:20:17;;;;;;;46.67;30.25;;;;;;;6.36;97.60;103161.00;5092791;28;20460;-74
2022/04/16 06:22:43;;;;;;;47.10;31.45;;;;;;;6.40;97.17;103158.56;5105150;28;20034;-74
2022/04/16 06:25:09;;;;;;;46.17;31.38;;;;;;;6.48;97.65;103164.00;5097830;28;20598;-74
2022/04/16 06:27:38;;;;;;;49.15;31.08;;;;;;;6.53;97.51;103165.00;5110032;28;20111;-74
2022/04/16 06:30:08;;;;;;;47.05;29.70;;;;;;;6.62;97.13;103170.47;5109975;28;20028;-74
2022/04/16 06:32:34;;;;;;;43.17;29.60;;;;;;;6.66;96.83;103167.13;5112642;28;20364;-74
2022/04/16 06:34:59;;;;;;;43.53;29.00;;;;;;;6.73;96.29;103163.88;5111599;28;20047;-74
2022/04/16 06:37:25;;;;;;;44.67;28.30;;;;;;;6.82;96.43;103167.56;5111500;28;20062;-74
2022/04/16 06:39:50;;;;;;;46.22;31.15;;;;;;;6.90;97.10;103166.06;5111153;28;20047;-74
2022/04/16 06:42:15;;;;;;;48.85;30.25;;;;;;;6.95;96.70;103174.88;5112199;28;20028;-74
2022/04/16 06:44:40;;;;;;;48.10;28.67;;;;;;;7.07;96.45;103171.75;5111125;28;20386;-74
2022/04/16 06:47:06;;;;;;;47.03;29.95;;;;;;;7.12;96.76;103168.44;5104612;28;20039;-74
2022/04/16 06:49:31;;;;;;;45.03;30.27;;;;;;;7.21;96.18;103179.06;5108797;28;20035;-74
2022/04/16 06:51:56;;;;;;;51.47;31.35;;;;;;;7.30;96.25;103169.81;5112001;28;20455;-74
2022/04/16 06:54:21;;;;;;;47.75;31.45;;;;;;;7.36;96.65;103162.19;5094447;28;20032;-73
2022/04/16 06:56:47;;;;;;;49.00;31.05;;;;;;;7.43;95.88;103171.91;5104120;28;20024;-74
2022/04/16 06:59:12;;;;;;;46.40;29.90;;;;;;;7.48;95.71;103167.69;5108963;28;20039;-74
2022/04/16 07:01:37;;;;;;;45.83;30.08;;;;;;;7.58;95.44;103171.41;5108654;28;20027;-74
2022/04/16 07:04:02;;;;;;;48.53;30.70;;;;;;;7.68;95.48;103168.19;5111570;28;20510;-74
2022/04/16 07:06:28;;;;;;;49.47;30.73;;;;;;;7.77;96.02;103162.38;5112419;28;20110;-74
2022/04/16 07:08:53;;;;;;;47.38;29.63;;;;;;;7.87;94.44;103166.94;5102146;28;20096;-74
2022/04/16 07:11:18;;;;;;;48.35;28.75;;;;;;;7.97;94.24;103168.94;5093582;28;20472;-74
2022/04/16 07:13:44;;;;;;;46.53;29.55;;;;;;;8.08;94.17;103166.63;5097913;28;20035;-74
2022/04/16 07:16:09;;;;;;;47.55;29.60;;;;;;;8.17;93.99;103166.81;5113154;28;20069;-74
2022/04/16 07:18:34;;;;;;;47.22;30.25;;;;;;;8.25;93.58;103165.28;5111364;28;20063;-74
2022/04/16 07:21:00;;;;;;;45.25;28.67;;;;;;;8.35;93.39;103168.97;5111197;28;20122;-74
2022/04/16 07:23:25;;;;;;;42.83;28.58;;;;;;;8.45;93.04;103173.56;5112214;28;20107;-74
2022/04/16 07:25:50;;;;;;;46.67;28.08;;;;;;;8.52;92.72;103167.66;5111197;28;20024;-74
2022/04/16 07:28:21;;;;;;;45.03;27.70;;;;;;;8.60;92.04;103168.72;5110317;28;20424;-74
2022/04/16 07:30:50;;;;;;;45.60;28.30;;;;;;;8.74;91.29;103166.41;5109118;28;20039;-74
2022/04/16 07:33:16;;;;;;;42.10;27.42;;;;;;;8.84;91.02;103173.56;5109352;28;20032;-75
2022/04/16 07:35:42;;;;;;;39.25;25.90;;;;;;;8.91;91.02;103172.81;5112613;28;20067;-74
2022/04/16 07:38:07;;;;;;;42.35;25.92;;;;;;;8.98;90.00;103179.03;5109876;28;20032;-74
2022/04/16 07:40:34;;;;;;;39.83;25.20;;;;;;;9.05;89.45;103178.31;5102505;28;20048;-74
2022/04/16 07:43:00;;;;;;;38.80;26.05;;;;;;;9.16;89.19;103180.28;5103977;28;20387;-75
2022/04/16 07:45:25;;;;;;;41.63;27.50;;;;;;;9.23;88.75;103184.75;5100724;28;20052;-75
2022/04/16 07:47:50;;;;;;;38.13;24.92;;;;;;;9.28;87.33;103180.50;5096935;28;20484;-75
2022/04/16 07:50:16;;;;;;;37.90;24.85;;;;;;;9.32;87.52;103185.81;5114691;28;20031;-73
2022/04/16 07:52:45;;;;;;;38.75;25.52;;;;;;;9.37;87.16;103180.66;5115015;28;20046;-74
2022/04/16 07:55:11;;;;;;;39.67;25.38;;;;;;;9.44;86.71;103179.06;5112165;27;20027;-73
2022/04/16 07:57:36;;;;;;;34.88;24.30;;;;;;;9.51;86.00;103184.41;5098395;27;20024;-74
2022/04/16 08:00:03;;;;;;;38.50;25.08;;;;;;;9.58;86.57;103175.88;5105910;28;20394;-73
2022/04/16 08:02:29;;;;;;;38.25;24.80;;;;;;;9.71;85.32;103170.84;5094969;28;20518;-73
2022/04/16 08:04:54;;;;;;;35.10;23.73;;;;;;;9.81;85.42;103172.78;5095422;28;20032;-74
2022/04/16 08:07:19;;;;;;;36.58;24.30;;;;;;;9.87;85.45;103178.06;5095202;28;20054;-74
2022/04/16 08:09:45;;;;;;;35.83;23.80;;;;;;;9.93;83.80;103177.31;5103757;28;20052;-74
2022/04/16 08:12:11;;;;;;;35.35;23.65;;;;;;;9.91;84.65;103174.69;5115461;28;20027;-73
2022/04/16 08:14:36;;;;;;;35.88;23.70;;;;;;;10.06;84.63;103187.06;5114530;28;20031;-74
2022/04/16 08:17:01;;;;;;;35.00;23.20;;;;;;;10.14;82.89;103176.78;5112974;28;20032;-74
2022/04/16 08:19:27;;;;;;;34.00;22.27;;;;;;;10.18;82.21;103178.59;5105447;28;20031;-74
2022/04/16 08:21:53;;;;;;;35.35;22.58;;;;;;;10.27;83.13;103170.94;5095251;28;20030;-74
2022/04/16 08:24:39;;;;;;;34.47;22.40;;;;;;;10.37;81.58;103171.97;5094788;28;20028;-73
2022/04/16 08:27:06;;;;;;;31.65;22.10;;;;;;;10.46;81.27;103170.34;5100852;28;20114;-74
2022/04/16 08:29:34;;;;;;;35.78;22.73;;;;;;;10.58;82.56;103179.19;5112462;28;20036;-74
2022/04/16 08:31:59;;;;;;;30.67;20.92;;;;;;;10.68;80.18;103181.06;5095687;28;20035;-74
2022/04/16 08:34:25;;;;;;;30.65;20.15;;;;;;;10.76;80.69;103187.28;5093344;28;20036;-74
2022/04/16 08:36:50;;;;;;;27.55;19.35;;;;;;;10.84;79.10;103193.47;5093157;28;20380;-74
2022/04/16 08:39:15;;;;;;;30.05;18.50;;;;;;;10.92;77.17;103186.63;5093491;28;20039;-74
2022/04/16 08:41:41;;;;;;;27.52;18.42;;;;;;;10.97;76.73;103184.94;5094401;28;20100;-74
2022/04/16 08:44:08;;;;;;;26.95;18.85;;;;;;;11.09;77.61;103188.56;5100545;28;20505;-74
2022/04/16 08:46:33;;;;;;;27.33;19.25;;;;;;;11.26;77.58;103187.00;5114016;28;20383;-74
2022/04/16 08:48:59;;;;;;;28.25;18.75;;;;;;;11.35;75.69;103181.03;5113154;28;20016;-74
2022/04/16 08:51:28;;;;;;;27.73;18.70;;;;;;;11.44;76.28;103196.75;5114614;28;20043;-74
2022/04/16 08:53:54;;;;;;;25.63;17.70;;;;;;;11.57;77.85;103195.16;5112314;27;20028;-74
2022/04/16 08:56:20;;;;;;;24.20;16.67;;;;;;;11.67;74.26;103194.38;5114069;28;20026;-74
2022/04/16 08:58:45;;;;;;;24.98;17.15;;;;;;;11.73;72.61;103187.47;5114239;28;20032;-74
2022/04/16 09:01:11;;;;;;;24.50;16.98;;;;;;;11.80;73.74;103183.16;5112535;28;20031;-74
2022/04/16 09:03:38;;;;;;;23.80;15.95;;;;;;;11.90;71.66;103176.31;5113865;28;20028;-74
2022/04/16 09:06:05;;;;;;;20.30;15.27;;;;;;;12.03;71.43;103183.41;5113900;27;20027;-74
2022/04/16 09:08:31;;;;;;;21.75;14.60;;;;;;;12.10;71.46;103182.59;5111918;27;20036;-74
2022/04/16 09:11:12;;;;;;;20.83;15.25;;;;;;;12.27;72.96;103174.00;5110557;27;20157;-74
2022/04/16 09:13:51;;;;;;;21.98;15.20;;;;;;;12.33;70.70;103179.28;5114182;28;20039;-74
2022/04/16 09:16:17;;;;;;;20.92;14.63;;;;;;;12.45;71.13;103179.31;5114588;28;20027;-74
2022/04/16 09:18:47;;;;;;;21.15;13.73;;;;;;;12.64;69.66;103182.94;5113141;28;20036;-74
2022/04/16 09:21:13;;;;;;;20.67;13.57;;;;;;;12.59;67.53;103166.34;5114349;28;20058;-74
2022/04/16 09:23:47;;;;;;;19.27;12.75;;;;;;;12.67;66.73;103182.06;5110940;28;20028;-73
2022/04/16 09:26:12;;;;;;;;;;;;;;;12.79;69.56;103169.06;5120936;27;20424;-74
2022/04/16 09:28:44;;;;;;;13.77;10.27;;;;;;;12.90;66.25;103177.81;5113718;28;19920;-74
2022/04/16 09:31:09;;;;;;;13.75;10.57;;;;;;;12.93;63.46;103182.19;5110871;28;20058;-73
2022/04/16 09:33:39;;;;;;;17.65;11.93;;;;;;;12.74;64.46;103171.63;5111101;27;20070;-74
2022/04/16 09:36:04;;;;;;;16.90;11.95;;;;;;;12.77;63.49;103173.41;5112879;27;20027;-74
2022/04/16 09:38:37;;;;;;;16.15;11.95;;;;;;;12.96;64.74;103171.75;5113534;28;20031;-74
2022/04/16 09:41:08;;;;;;;16.25;11.88;;;;;;;13.13;62.04;103175.28;5113507;28;20024;-74
2022/04/16 09:43:37;;;;;;;16.55;12.52;;;;;;;13.44;62.55;103178.91;5113582;28;20046;-74
2022/04/16 09:46:12;;;;;;;14.07;10.65;;;;;;;13.90;61.14;103159.72;5112917;28;20028;-74
2022/04/16 09:48:38;;;;;;;12.73;10.45;;;;;;;14.25;58.44;103164.88;5113151;28;20459;-74
2022/04/16 09:51:06;;;;;;;11.90;8.77;;;;;;;14.52;57.50;103154.38;5113315;28;20131;-74
2022/04/16 09:53:31;;;;;;;12.27;8.68;;;;;;;14.61;56.43;103153.44;5112647;28;20062;-74
2022/04/16 09:55:59;;;;;;;10.40;6.72;;;;;;;14.67;53.13;103157.81;5113209;28;20423;-74
2022/04/16 09:58:47;;;;;;;11.40;7.43;;;;;;;14.62;57.51;103168.34;5113534;28;20092;-74
2022/04/16 10:01:13;;;;;;;11.13;8.10;;;;;;;14.61;53.97;103158.69;5113175;28;20475;-74
2022/04/16 10:03:39;;;;;;;7.55;6.13;;;;;;;14.71;54.95;103170.94;5113342;28;20099;-74
2022/04/16 10:06:06;;;;;;;7.22;5.78;;;;;;;14.68;53.43;103152.56;5112628;28;20465;-74
2022/04/16 10:08:32;;;;;;;8.60;6.68;;;;;;;14.70;53.06;103157.81;5112958;28;20023;-74
2022/04/16 10:10:58;;;;;;;7.80;6.07;;;;;;;14.91;54.06;103144.59;5112911;28;20084;-74
2022/04/16 10:13:24;;;;;;;9.93;7.80;;;;;;;15.00;52.10;103156.78;5112724;28;20023;-74
2022/04/16 10:16:12;;;;;;;12.82;8.43;;;;;;;15.02;54.82;103144.53;5112335;28;20023;-74
2022/04/16 10:18:37;;;;;;;10.82;8.82;;;;;;;15.04;53.90;103147.13;5113065;28;20031;-74
2022/04/16 10:21:04;;;;;;;10.15;8.38;;;;;;;15.02;51.93;103149.78;5112333;28;20027;-74
2022/04/16 10:23:40;;;;;;;11.18;8.30;;;;;;;14.81;54.83;103148.13;5112991;28;20026;-74
2022/04/16 10:26:10;;;;;;;10.00;7.80;;;;;;;14.79;53.41;103144.63;5112622;28;20378;-74
2022/04/16 10:28:50;;;;;;;11.20;8.52;;;;;;;14.89;54.29;103150.72;5112156;28;20034;-74
2022/04/16 10:31:24;;;;;;;12.02;7.75;;;;;;;15.03;53.67;103148.88;5112947;28;20103;-74
2022/04/16 10:34:04;;;;;;;8.45;6.78;;;;;;;15.09;52.66;103154.13;5112337;28;20028;-74
2022/04/16 10:36:36;;;;;;;9.07;6.78;;;;;;;15.19;52.01;103155.81;5112577;28;20074;-74
2022/04/16 10:39:12;;;;;;;11.38;7.00;;;;;;;15.24;51.39;103134.78;5112761;28;20028;-74
2022/04/16 10:41:38;;;;;;;9.20;7.07;;;;;;;15.32;49.86;103142.59;5112052;28;20126;-74
2022/04/16 10:44:09;;;;;;;9.27;7.30;;;;;;;15.55;50.46;103145.91;5112428;28;20103;-75
2022/04/16 10:46:44;;;;;;;8.70;7.15;;;;;;;15.74;51.78;103137.94;5112406;28;20023;-74
2022/04/16 10:49:11;;;;;;;8.50;6.80;;;;;;;15.92;50.75;103140.38;5111772;28;20027;-74
2022/04/16 10:51:36;;;;;;;8.60;6.85;;;;;;;16.15;48.40;103146.31;5111983;28;20051;-75
2022/04/16 10:54:15;;;;;;;8.57;6.93;;;;;;;16.38;49.44;103146.06;5106383;28;20024;-74
2022/04/16 10:56:53;;;;;;;9.85;6.55;;;;;;;16.72;49.64;103145.66;5106118;28;20490;-75
2022/04/16 10:59:18;;;;;;;7.97;6.95;;;;;;;17.10;47.93;103141.66;5111000;28;20028;-75
2022/04/16 11:01:53;;;;;;;9.27;5.68;;;;;;;17.31;48.81;103133.44;5108950;28;20042;-74
2022/04/16 11:04:19;;;;;;;9.45;6.05;;;;;;;17.50;46.62;103130.53;5112784;27;20077;-79
2022/04/16 11:06:46;;;;;;;7.60;5.43;;;;;;;17.67;45.35;103132.88;5107987;28;20012;-79
2022/04/16 11:09:13;;;;;;;8.65;5.45;;;;;;;17.61;43.99;103140.88;5091543;28;20099;-79
2022/04/16 11:11:41;;;;;;;7.78;5.57;;;;;;;17.45;44.44;103137.63;5091491;28;20054;-78
2022/04/16 11:14:08;;;;;;;8.48;5.97;;;;;;;17.22;43.16;103135.34;5091670;28;20476;-79
2022/04/16 11:16:41;;;;;;;7.35;5.53;;;;;;;17.13;44.81;103125.78;5090983;28;20452;-79
2022/04/16 11:19:12;;;;;;;7.20;5.28;;;;;;;17.17;44.55;103142.47;5130224;28;20496;-79
2022/04/16 11:21:37;;;;;;;6.85;5.28;;;;;;;17.08;43.54;103136.41;5113358;27;20382;-79
2022/04/16 11:24:06;;;;;;;6.13;4.97;;;;;;;16.97;43.84;103133.06;5111362;28;20019;-79
2022/04/16 11:34:45;;;;;;;6.75;5.70;;;;;;;17.08;43.14;103133.78;5126254;28;20446;-79
2022/04/16 11:37:13;;;;;;;8.05;5.38;;;;;;;17.26;44.54;103134.38;5132615;27;20031;-79